sensor_id;sensor_type;location;lat;lon;timestamp;pressure;altitude;pressure_sealevel;temperature;humidity
29935;BME280;19905;53.370;-6.314;2023-03-23T00:00:25;98325.16;;;6.53;100.00
29935;BME280;19905;53.370;-6.314;2023-03-23T00:02:52;98322.38;;;6.55;100.00
29935;BME280;19905;53.370;-6.314;2023-03-23T00:05:19;98321.91;;;6.59;100.00
29935;BME280;19905;53.370;-6.314;2023-03-23T00:07:46;98329.22;;;6.66;100.00
29935;BME280;19905;53.370;-6.314;2023-03-23T00:10:18;98315.94;;;6.67;100.00
29935;BME280;19905;53.370;-6.314;2023-03-23T00:12:45;98322.81;;;6.68;100.00
29935;BME280;19905;53.370;-6.314;2023-03-23T00:15:15;98323.88;;;6.75;100.00
29935;BME280;19905;53.370;-6.314;2023-03-23T00:17:44;98325.28;;;6.87;100.00
29935;BME280;19905;53.370;-6.314;2023-03-23T00:20:12;98324.31;;;6.88;100.00
29935;BME280;19905;53.370;-6.314;2023-03-23T00:22:39;98332.19;;;6.88;100.00
29935;BME280;19905;53.370;-6.314;2023-03-23T00:25:07;98317.63;;;6.94;100.00
29935;BME280;19905;53.370;-6.314;2023-03-23T00:27:35;98327.31;;;6.94;100.00
29935;BME280;19905;53.370;-6.314;2023-03-23T00:30:04;98315.06;;;7.02;100.00
29935;BME280;19905;53.370;-6.314;2023-03-23T00:32:32;98311.75;;;7.00;100.00
29935;BME280;19905;53.370;-6.314;2023-03-23T00:35:01;98312.72;;;6.99;100.00
29935;BME280;19905;53.370;-6.314;2023-03-23T00:37:28;98315.06;;;7.02;100.00
29935;BME280;19905;53.370;-6.314;2023-03-23T00:39:56;98311.44;;;7.03;100.00
29935;BME280;19905;53.370;-6.314;2023-03-23T00:42:23;98314.25;;;7.02;100.00
29935;BME280;19905;53.370;-6.314;2023-03-23T00:44:51;98311.00;;;7.08;100.00
29935;BME280;19905;53.370;-6.314;2023-03-23T00:47:27;98298.84;;;7.07;100.00
29935;BME280;19905;53.370;-6.314;2023-03-23T00:49:56;98303.78;;;7.10;100.00
29935;BME280;19905;53.370;-6.314;2023-03-23T00:52:24;98317.06;;;7.08;100.00
29935;BME280;19905;53.370;-6.314;2023-03-23T00:54:51;98321.50;;;7.08;100.00
29935;BME280;19905;53.370;-6.314;2023-03-23T00:57:19;98318.25;;;7.14;100.00
29935;BME280;19905;53.370;-6.314;2023-03-23T00:59:50;98321.22;;;7.19;100.00
29935;BME280;19905;53.370;-6.314;2023-03-23T01:02:18;98335.50;;;7.17;100.00
29935;BME280;19905;53.370;-6.314;2023-03-23T01:04:45;98321.75;;;7.23;100.00
29935;BME280;19905;53.370;-6.314;2023-03-23T01:07:12;98309.44;;;7.23;100.00
29935;BME280;19905;53.370;-6.314;2023-03-23T01:09:41;98324.19;;;7.16;100.00
29935;BME280;19905;53.370;-6.314;2023-03-23T01:12:10;98338.94;;;7.17;100.00
29935;BME280;19905;53.370;-6.314;2023-03-23T01:14:38;98341.41;;;7.19;100.00
29935;BME280;19905;53.370;-6.314;2023-03-23T01:17:06;98339.13;;;7.24;100.00
29935;BME280;19905;53.370;-6.314;2023-03-23T01:19:33;98339.47;;;7.21;100.00
29935;BME280;19905;53.370;-6.314;2023-03-23T01:22:00;98337.66;;;7.21;100.00
29935;BME280;19905;53.370;-6.314;2023-03-23T01:24:28;98328.63;;;7.16;100.00
29935;BME280;19905;53.370;-6.314;2023-03-23T01:26:57;98342.56;;;7.16;100.00
29935;BME280;19905;53.370;-6.314;2023-03-23T01:29:27;98341.22;;;7.12;100.00
29935;BME280;19905;53.370;-6.314;2023-03-23T01:31:54;98334.81;;;7.14;100.00
29935;BME280;19905;53.370;-6.314;2023-03-23T01:34:23;98344.81;;;7.11;100.00
29935;BME280;19905;53.370;-6.314;2023-03-23T01:36:50;98344.28;;;7.07;100.00
29935;BME280;19905;53.370;-6.314;2023-03-23T01:39:18;98351.81;;;7.02;100.00
29935;BME280;19905;53.370;-6.314;2023-03-23T01:41:46;98353.53;;;6.94;100.00
29935;BME280;19905;53.370;-6.314;2023-03-23T01:47:22;98362.56;;;6.55;100.00
29935;BME280;19905;53.370;-6.314;2023-03-23T01:49:52;98368.38;;;6.49;100.00
29935;BME280;19905;53.370;-6.314;2023-03-23T01:52:21;98359.47;;;6.42;100.00
29935;BME280;19905;53.370;-6.314;2023-03-23T01:54:50;98355.84;;;6.25;100.00
29935;BME280;19905;53.370;-6.314;2023-03-23T01:57:22;98352.69;;;6.22;100.00
29935;BME280;19905;53.370;-6.314;2023-03-23T01:59:53;98366.84;;;6.11;100.00
29935;BME280;19905;53.370;-6.314;2023-03-23T02:02:26;98346.75;;;6.02;100.00
29935;BME280;19905;53.370;-6.314;2023-03-23T02:04:59;98352.28;;;5.99;100.00
29935;BME280;19905;53.370;-6.314;2023-03-23T02:07:28;98354.88;;;5.99;100.00
29935;BME280;19905;53.370;-6.314;2023-03-23T02:09:56;98351.72;;;5.95;100.00
29935;BME280;19905;53.370;-6.314;2023-03-23T02:12:23;98354.59;;;6.02;100.00
29935;BME280;19905;53.370;-6.314;2023-03-23T02:14:51;98357.91;;;6.04;100.00
29935;BME280;19905;53.370;-6.314;2023-03-23T02:17:23;98360.91;;;6.09;100.00
29935;BME280;19905;53.370;-6.314;2023-03-23T02:20:07;98338.72;;;6.03;100.00
29935;BME280;19905;53.370;-6.314;2023-03-23T02:23:14;98326.75;;;6.01;100.00
29935;BME280;19905;53.370;-6.314;2023-03-23T02:26:02;98322.88;;;6.05;100.00
29935;BME280;19905;53.370;-6.314;2023-03-23T02:28:58;98333.38;;;6.05;100.00
29935;BME280;19905;53.370;-6.314;2023-03-23T02:31:43;98338.28;;;6.08;100.00
29935;BME280;19905;53.370;-6.314;2023-03-23T02:34:17;98331.13;;;6.10;100.00
29935;BME280;19905;53.370;-6.314;2023-03-23T02:36:49;98327.53;;;6.11;100.00
29935;BME280;19905;53.370;-6.314;2023-03-23T02:39:22;98329.00;;;6.14;100.00
29935;BME280;19905;53.370;-6.314;2023-03-23T02:41:54;98319.88;;;6.18;100.00
29935;BME280;19905;53.370;-6.314;2023-03-23T02:44:23;98329.84;;;6.14;100.00
29935;BME280;19905;53.370;-6.314;2023-03-23T02:46:54;98328.28;;;6.21;100.00
29935;BME280;19905;53.370;-6.314;2023-03-23T02:49:26;98322.59;;;6.26;100.00
29935;BME280;19905;53.370;-6.314;2023-03-23T02:51:56;98318.16;;;6.26;100.00
29935;BME280;19905;53.370;-6.314;2023-03-23T02:54:26;98322.31;;;6.29;100.00
29935;BME280;19905;53.370;-6.314;2023-03-23T02:56:54;98320.72;;;6.36;100.00
29935;BME280;19905;53.370;-6.314;2023-03-23T02:59:22;98324.69;;;6.40;100.00
29935;BME280;19905;53.370;-6.314;2023-03-23T03:02:05;98320.81;;;6.44;100.00
29935;BME280;19905;53.370;-6.314;2023-03-23T03:04:36;98321.03;;;6.51;100.00
29935;BME280;19905;53.370;-6.314;2023-03-23T03:10:05;98318.25;;;6.52;100.00
29935;BME280;19905;53.370;-6.314;2023-03-23T03:12:41;98320.44;;;6.57;100.00
29935;BME280;19905;53.370;-6.314;2023-03-23T03:15:17;98327.03;;;6.61;100.00
29935;BME280;19905;53.370;-6.314;2023-03-23T03:17:53;98310.16;;;6.63;100.00
29935;BME280;19905;53.370;-6.314;2023-03-23T03:20:25;98327.13;;;6.69;100.00
29935;BME280;19905;53.370;-6.314;2023-03-23T03:22:54;98302.59;;;6.78;100.00
29935;BME280;19905;53.370;-6.314;2023-03-23T03:25:23;98299.28;;;6.76;100.00
29935;BME280;19905;53.370;-6.314;2023-03-23T03:27:55;98282.56;;;6.77;100.00
29935;BME280;19905;53.370;-6.314;2023-03-23T03:30:26;98294.31;;;6.73;100.00
29935;BME280;19905;53.370;-6.314;2023-03-23T03:32:56;98281.53;;;6.70;100.00
29935;BME280;19905;53.370;-6.314;2023-03-23T03:35:28;98271.88;;;6.71;100.00
29935;BME280;19905;53.370;-6.314;2023-03-23T03:38:05;98273.88;;;6.77;100.00
29935;BME280;19905;53.370;-6.314;2023-03-23T03:40:33;98273.34;;;6.73;100.00
29935;BME280;19905;53.370;-6.314;2023-03-23T03:43:00;98260.69;;;6.69;100.00
29935;BME280;19905;53.370;-6.314;2023-03-23T03:45:28;98252.44;;;6.63;100.00
29935;BME280;19905;53.370;-6.314;2023-03-23T03:47:56;98239.78;;;6.59;100.00
29935;BME280;19905;53.370;-6.314;2023-03-23T03:50:24;98239.13;;;6.57;100.00
29935;BME280;19905;53.370;-6.314;2023-03-23T03:52:53;98229.25;;;6.51;100.00
29935;BME280;19905;53.370;-6.314;2023-03-23T03:55:20;98230.38;;;6.48;100.00
29935;BME280;19905;53.370;-6.314;2023-03-23T03:57:48;98219.88;;;6.48;100.00
29935;BME280;19905;53.370;-6.314;2023-03-23T04:00:16;98222.66;;;6.47;100.00
29935;BME280;19905;53.370;-6.314;2023-03-23T04:02:45;98214.13;;;6.45;100.00
29935;BME280;19905;53.370;-6.314;2023-03-23T04:05:17;98215.09;;;6.44;100.00
29935;BME280;19905;53.370;-6.314;2023-03-23T04:07:45;98212.94;;;6.39;100.00
29935;BME280;19905;53.370;-6.314;2023-03-23T04:10:20;98217.19;;;6.40;100.00
29935;BME280;19905;53.370;-6.314;2023-03-23T04:12:48;98219.97;;;6.39;100.00
29935;BME280;19905;53.370;-6.314;2023-03-23T04:15:18;98213.75;;;6.40;100.00
29935;BME280;19905;53.370;-6.314;2023-03-23T04:17:46;98215.84;;;6.36;100.00
29935;BME280;19905;53.370;-6.314;2023-03-23T04:20:14;98211.81;;;6.42;100.00
29935;BME280;19905;53.370;-6.314;2023-03-23T04:22:41;98212.09;;;6.39;100.00
29935;BME280;19905;53.370;-6.314;2023-03-23T04:25:11;98215.84;;;6.36;100.00
29935;BME280;19905;53.370;-6.314;2023-03-23T04:27:41;98222.31;;;6.42;100.00
29935;BME280;19905;53.370;-6.314;2023-03-23T04:30:13;98200.03;;;6.46;100.00
29935;BME280;19905;53.370;-6.314;2023-03-23T04:32:40;98217.78;;;6.52;100.00
29935;BME280;19905;53.370;-6.314;2023-03-23T04:35:11;98205.44;;;6.44;100.00
29935;BME280;19905;53.370;-6.314;2023-03-23T04:37:40;98210.06;;;6.50;100.00
29935;BME280;19905;53.370;-6.314;2023-03-23T04:40:09;98203.03;;;6.51;100.00
29935;BME280;19905;53.370;-6.314;2023-03-23T04:42:41;98215.69;;;6.55;100.00
29935;BME280;19905;53.370;-6.314;2023-03-23T04:45:12;98218.97;;;6.57;100.00
29935;BME280;19905;53.370;-6.314;2023-03-23T04:47:41;98217.47;;;6.55;100.00
29935;BME280;19905;53.370;-6.314;2023-03-23T04:50:20;98205.56;;;6.60;100.00
29935;BME280;19905;53.370;-6.314;2023-03-23T04:52:50;98215.06;;;6.61;100.00
29935;BME280;19905;53.370;-6.314;2023-03-23T04:55:20;98218.22;;;6.65;100.00
29935;BME280;19905;53.370;-6.314;2023-03-23T04:57:49;98219.22;;;6.72;100.00
29935;BME280;19905;53.370;-6.314;2023-03-23T05:00:17;98214.31;;;6.69;100.00
29935;BME280;19905;53.370;-6.314;2023-03-23T05:02:46;98209.56;;;6.73;100.00
29935;BME280;19905;53.370;-6.314;2023-03-23T05:05:18;98207.91;;;6.72;100.00
29935;BME280;19905;53.370;-6.314;2023-03-23T05:07:46;98199.75;;;6.75;100.00
29935;BME280;19905;53.370;-6.314;2023-03-23T05:10:15;98225.16;;;6.74;100.00
29935;BME280;19905;53.370;-6.314;2023-03-23T05:12:43;98228.16;;;6.79;100.00
29935;BME280;19905;53.370;-6.314;2023-03-23T05:15:14;98204.00;;;6.76;100.00
29935;BME280;19905;53.370;-6.314;2023-03-23T05:17:41;98217.06;;;6.68;100.00
29935;BME280;19905;53.370;-6.314;2023-03-23T05:20:11;98221.19;;;6.70;100.00
29935;BME280;19905;53.370;-6.314;2023-03-23T05:22:40;98221.66;;;6.66;100.00
29935;BME280;19905;53.370;-6.314;2023-03-23T05:25:08;98217.06;;;6.68;100.00
29935;BME280;19905;53.370;-6.314;2023-03-23T05:27:36;98207.41;;;6.68;100.00
29935;BME280;19905;53.370;-6.314;2023-03-23T05:30:05;98215.59;;;6.65;100.00
29935;BME280;19905;53.370;-6.314;2023-03-23T05:32:34;98217.16;;;6.58;100.00
29935;BME280;19905;53.370;-6.314;2023-03-23T05:35:04;98208.53;;;6.66;100.00
29935;BME280;19905;53.370;-6.314;2023-03-23T05:37:31;98214.59;;;6.66;100.00
29935;BME280;19905;53.370;-6.314;2023-03-23T05:39:59;98216.41;;;6.66;100.00
29935;BME280;19905;53.370;-6.314;2023-03-23T05:42:31;98220.84;;;6.65;100.00
29935;BME280;19905;53.370;-6.314;2023-03-23T05:45:00;98212.16;;;6.65;100.00
29935;BME280;19905;53.370;-6.314;2023-03-23T05:47:28;98221.13;;;6.62;100.00
29935;BME280;19905;53.370;-6.314;2023-03-23T05:49:57;98219.34;;;6.62;100.00
29935;BME280;19905;53.370;-6.314;2023-03-23T05:52:27;98224.28;;;6.66;100.00
29935;BME280;19905;53.370;-6.314;2023-03-23T05:54:54;98218.06;;;6.67;100.00
29935;BME280;19905;53.370;-6.314;2023-03-23T05:57:21;98218.06;;;6.67;100.00
29935;BME280;19905;53.370;-6.314;2023-03-23T05:59:49;98218.06;;;6.67;100.00
29935;BME280;19905;53.370;-6.314;2023-03-23T06:02:16;98220.84;;;6.65;100.00
29935;BME280;19905;53.370;-6.314;2023-03-23T06:04:43;98216.78;;;6.71;100.00
29935;BME280;19905;53.370;-6.314;2023-03-23T06:07:12;98212.03;;;6.74;100.00
29935;BME280;19905;53.370;-6.314;2023-03-23T06:09:41;98199.13;;;6.81;100.00
29935;BME280;19905;53.370;-6.314;2023-03-23T06:12:09;98216.66;;;6.80;100.00
29935;BME280;19905;53.370;-6.314;2023-03-23T06:14:37;98211.41;;;6.80;100.00
29935;BME280;19905;53.370;-6.314;2023-03-23T06:17:05;98197.84;;;6.85;100.00
29935;BME280;19905;53.370;-6.314;2023-03-23T06:19:34;98196.72;;;6.87;100.00
29935;BME280;19905;53.370;-6.314;2023-03-23T06:22:02;98197.53;;;6.88;100.00
29935;BME280;19905;53.370;-6.314;2023-03-23T06:24:33;98195.88;;;6.87;100.00
29935;BME280;19905;53.370;-6.314;2023-03-23T06:27:00;98192.41;;;6.86;100.00
29935;BME280;19905;53.370;-6.314;2023-03-23T06:29:29;98192.75;;;6.83;100.00
29935;BME280;19905;53.370;-6.314;2023-03-23T06:31:59;98188.16;;;6.85;100.00
29935;BME280;19905;53.370;-6.314;2023-03-23T06:34:29;98187.53;;;6.92;100.00
29935;BME280;19905;53.370;-6.314;2023-03-23T06:36:59;98195.03;;;6.86;100.00
29935;BME280;19905;53.370;-6.314;2023-03-23T06:39:28;98198.72;;;6.94;100.00
29935;BME280;19905;53.370;-6.314;2023-03-23T06:41:57;98202.72;;;7.06;100.00
29935;BME280;19905;53.370;-6.314;2023-03-23T06:44:26;98195.44;;;7.00;100.00
29935;BME280;19905;53.370;-6.314;2023-03-23T06:46:53;98184.00;;;7.09;100.00
29935;BME280;19905;53.370;-6.314;2023-03-23T06:49:21;98198.63;;;7.11;100.00
29935;BME280;19905;53.370;-6.314;2023-03-23T06:51:48;98197.66;;;7.12;100.00
29935;BME280;19905;53.370;-6.314;2023-03-23T06:54:16;98208.16;;;7.12;100.00
29935;BME280;19905;53.370;-6.314;2023-03-23T06:56:43;98204.88;;;7.10;100.00
29935;BME280;19905;53.370;-6.314;2023-03-23T06:59:12;98210.13;;;7.19;100.00
29935;BME280;19905;53.370;-6.314;2023-03-23T07:01:40;98212.41;;;7.13;100.00
29935;BME280;19905;53.370;-6.314;2023-03-23T07:04:07;98215.22;;;7.12;100.00
29935;BME280;19905;53.370;-6.314;2023-03-23T07:06:34;98226.53;;;7.12;100.00
29935;BME280;19905;53.370;-6.314;2023-03-23T07:09:03;98222.31;;;7.20;100.00
29935;BME280;19905;53.370;-6.314;2023-03-23T07:11:31;98226.06;;;7.17;100.00
29935;BME280;19905;53.370;-6.314;2023-03-23T07:13:58;98223.59;;;7.16;100.00
29935;BME280;19905;53.370;-6.314;2023-03-23T07:16:27;98225.06;;;7.18;100.00
29935;BME280;19905;53.370;-6.314;2023-03-23T07:18:54;98223.44;;;7.17;100.00
29935;BME280;19905;53.370;-6.314;2023-03-23T07:21:22;98224.78;;;7.21;100.00
29935;BME280;19905;53.370;-6.314;2023-03-23T07:23:49;98238.44;;;7.33;100.00
29935;BME280;19905;53.370;-6.314;2023-03-23T07:26:16;98238.81;;;7.38;100.00
29935;BME280;19905;53.370;-6.314;2023-03-23T07:28:44;98237.38;;;7.52;100.00
29935;BME280;19905;53.370;-6.314;2023-03-23T07:31:12;98237.38;;;7.52;100.00
29935;BME280;19905;53.370;-6.314;2023-03-23T07:33:41;98232.13;;;7.60;100.00
29935;BME280;19905;53.370;-6.314;2023-03-23T07:36:10;98241.81;;;7.59;100.00
29935;BME280;19905;53.370;-6.314;2023-03-23T07:38:38;98239.06;;;7.61;100.00
29935;BME280;19905;53.370;-6.314;2023-03-23T07:41:06;98224.28;;;7.68;100.00
29935;BME280;19905;53.370;-6.314;2023-03-23T07:43:33;98235.81;;;7.75;100.00
29935;BME280;19905;53.370;-6.314;2023-03-23T07:46:00;98232.38;;;7.75;100.00
29935;BME280;19905;53.370;-6.314;2023-03-23T07:48:27;98244.84;;;7.73;100.00
29935;BME280;19905;53.370;-6.314;2023-03-23T07:50:56;98241.41;;;7.80;100.00
29935;BME280;19905;53.370;-6.314;2023-03-23T07:53:25;98240.75;;;7.86;100.00
29935;BME280;19905;53.370;-6.314;2023-03-23T07:55:53;98235.53;;;7.95;100.00
29935;BME280;19905;53.370;-6.314;2023-03-23T07:58:20;98240.47;;;7.98;100.00
29935;BME280;19905;53.370;-6.314;2023-03-23T08:00:48;98245.41;;;8.01;100.00
29935;BME280;19905;53.370;-6.314;2023-03-23T08:03:16;98231.13;;;8.03;100.00
29935;BME280;19905;53.370;-6.314;2023-03-23T08:05:43;98231.63;;;8.07;100.00
29935;BME280;19905;53.370;-6.314;2023-03-23T08:08:13;98230.94;;;8.05;100.00
29935;BME280;19905;53.370;-6.314;2023-03-23T08:10:41;98226.50;;;8.05;100.00
29935;BME280;19905;53.370;-6.314;2023-03-23T08:13:08;98226.03;;;8.18;100.00
29935;BME280;19905;53.370;-6.314;2023-03-23T08:15:36;98240.03;;;8.27;100.00
29935;BME280;19905;53.370;-6.314;2023-03-23T08:18:04;98244.16;;;8.37;100.00
29935;BME280;19905;53.370;-6.314;2023-03-23T08:20:32;98232.84;;;8.53;100.00
29935;BME280;19905;53.370;-6.314;2023-03-23T08:22:59;98220.00;;;8.58;100.00
29935;BME280;19905;53.370;-6.314;2023-03-23T08:25:30;98213.25;;;8.56;100.00
29935;BME280;19905;53.370;-6.314;2023-03-23T08:27:59;98225.91;;;8.60;100.00
29935;BME280;19905;53.370;-6.314;2023-03-23T08:30:28;98228.84;;;8.65;100.00
29935;BME280;19905;53.370;-6.314;2023-03-23T08:32:56;98219.00;;;8.68;100.00
29935;BME280;19905;53.370;-6.314;2023-03-23T08:35:23;98216.50;;;8.74;100.00
29935;BME280;19905;53.370;-6.314;2023-03-23T08:37:51;98220.47;;;8.78;100.00
29935;BME280;19905;53.370;-6.314;2023-03-23T08:40:22;98228.84;;;8.74;100.00
29935;BME280;19905;53.370;-6.314;2023-03-23T08:42:51;98214.56;;;8.84;100.00
29935;BME280;19905;53.370;-6.314;2023-03-23T08:45:21;98206.63;;;8.93;100.00
29935;BME280;19905;53.370;-6.314;2023-03-23T08:47:50;98201.81;;;9.04;100.00
29935;BME280;19905;53.370;-6.314;2023-03-23T08:50:20;98197.19;;;9.14;100.00
29935;BME280;19905;53.370;-6.314;2023-03-23T08:52:48;98199.91;;;9.29;100.00
29935;BME280;19905;53.370;-6.314;2023-03-23T08:55:17;98201.41;;;9.32;100.00
29935;BME280;19905;53.370;-6.314;2023-03-23T08:57:45;98214.56;;;9.40;100.00
29935;BME280;19905;53.370;-6.314;2023-03-23T09:00:17;98200.44;;;9.64;100.00
29935;BME280;19905;53.370;-6.314;2023-03-23T09:02:47;98207.53;;;9.63;100.00
29935;BME280;19905;53.370;-6.314;2023-03-23T09:05:16;98214.00;;;9.84;100.00
29935;BME280;19905;53.370;-6.314;2023-03-23T09:07:45;98203.94;;;9.87;100.00
29935;BME280;19905;53.370;-6.314;2023-03-23T09:10:14;98201.72;;;9.99;100.00
29935;BME280;19905;53.370;-6.314;2023-03-23T09:12:42;98200.25;;;10.19;100.00
29935;BME280;19905;53.370;-6.314;2023-03-23T09:15:12;98188.22;;;10.17;100.00
29935;BME280;19905;53.370;-6.314;2023-03-23T09:17:43;98191.84;;;10.24;100.00
29935;BME280;19905;53.370;-6.314;2023-03-23T09:20:13;98212.50;;;10.35;100.00
29935;BME280;19905;53.370;-6.314;2023-03-23T09:22:42;98208.25;;;10.34;100.00
29935;BME280;19905;53.370;-6.314;2023-03-23T09:25:12;98209.28;;;10.48;100.00
29935;BME280;19905;53.370;-6.314;2023-03-23T09:27:41;98198.28;;;10.45;100.00
29935;BME280;19905;53.370;-6.314;2023-03-23T09:30:11;98224.06;;;10.57;100.00
29935;BME280;19905;53.370;-6.314;2023-03-23T09:32:40;98208.16;;;10.80;100.00
29935;BME280;19905;53.370;-6.314;2023-03-23T09:35:11;98212.63;;;10.65;100.00
29935;BME280;19905;53.370;-6.314;2023-03-23T09:37:39;98206.50;;;10.50;100.00
29935;BME280;19905;53.370;-6.314;2023-03-23T09:40:12;98216.06;;;10.28;100.00
29935;BME280;19905;53.370;-6.314;2023-03-23T09:42:54;98225.13;;;10.48;100.00
29935;BME280;19905;53.370;-6.314;2023-03-23T09:45:27;98221.69;;;10.62;100.00
29935;BME280;19905;53.370;-6.314;2023-03-23T09:48:24;98205.91;;;10.77;100.00
29935;BME280;19905;53.370;-6.314;2023-03-23T09:51:01;98206.66;;;11.01;100.00
29935;BME280;19905;53.370;-6.314;2023-03-23T09:53:34;98201.94;;;10.96;100.00
29935;BME280;19905;53.370;-6.314;2023-03-23T09:56:09;98208.72;;;10.76;100.00
29935;BME280;19905;53.370;-6.314;2023-03-23T09:58:45;98209.84;;;11.11;100.00
29935;BME280;19905;53.370;-6.314;2023-03-23T10:01:16;98230.53;;;11.07;100.00
29935;BME280;19905;53.370;-6.314;2023-03-23T10:03:46;98202.47;;;11.21;100.00
29935;BME280;19905;53.370;-6.314;2023-03-23T10:06:17;98200.78;;;11.50;100.00
29935;BME280;19905;53.370;-6.314;2023-03-23T10:08:47;98205.84;;;11.30;100.00
29935;BME280;19905;53.370;-6.314;2023-03-23T10:11:20;98206.63;;;11.60;100.00
29935;BME280;19905;53.370;-6.314;2023-03-23T10:14:02;98204.88;;;11.67;100.00
29935;BME280;19905;53.370;-6.314;2023-03-23T10:16:38;98208.94;;;11.33;100.00
29935;BME280;19905;53.370;-6.314;2023-03-23T10:19:11;98204.28;;;11.35;100.00
29935;BME280;19905;53.370;-6.314;2023-03-23T10:21:44;98200.63;;;11.51;100.00
29935;BME280;19905;53.370;-6.314;2023-03-23T10:24:16;98210.50;;;11.93;100.00
29935;BME280;19905;53.370;-6.314;2023-03-23T10:26:54;98205.28;;;11.64;100.00
29935;BME280;19905;53.370;-6.314;2023-03-23T10:29:28;98198.03;;;12.09;100.00
29935;BME280;19905;53.370;-6.314;2023-03-23T10:31:59;98184.59;;;12.32;100.00
29935;BME280;19905;53.370;-6.314;2023-03-23T10:34:31;98213.16;;;12.36;100.00
29935;BME280;19905;53.370;-6.314;2023-03-23T10:37:05;98198.94;;;12.37;100.00
29935;BME280;19905;53.370;-6.314;2023-03-23T10:39:40;98203.94;;;12.75;100.00
29935;BME280;19905;53.370;-6.314;2023-03-23T10:42:09;98200.63;;;12.73;100.00
29935;BME280;19905;53.370;-6.314;2023-03-23T10:44:36;98200.06;;;12.78;100.00
29935;BME280;19905;53.370;-6.314;2023-03-23T10:47:06;98207.88;;;12.86;100.00
29935;BME280;19905;53.370;-6.314;2023-03-23T10:49:40;98198.25;;;13.13;100.00
29935;BME280;19905;53.370;-6.314;2023-03-23T10:52:24;98204.03;;;12.88;100.00
29935;BME280;19905;53.370;-6.314;2023-03-23T10:54:56;98199.44;;;12.76;100.00
29935;BME280;19905;53.370;-6.314;2023-03-23T10:57:26;98197.97;;;13.01;100.00
29935;BME280;19905;53.370;-6.314;2023-03-23T11:00:00;98205.72;;;13.24;100.00
29935;BME280;19905;53.370;-6.314;2023-03-23T11:02:35;98212.06;;;13.02;100.00
29935;BME280;19905;53.370;-6.314;2023-03-23T11:05:12;98202.09;;;12.76;100.00
29935;BME280;19905;53.370;-6.314;2023-03-23T11:07:49;98203.09;;;12.46;100.00
29935;BME280;19905;53.370;-6.314;2023-03-23T11:10:22;98216.94;;;12.70;100.00
29935;BME280;19905;53.370;-6.314;2023-03-23T11:12:50;98202.66;;;12.71;100.00
29935;BME280;19905;53.370;-6.314;2023-03-23T11:15:28;98206.47;;;12.62;100.00
29935;BME280;19905;53.370;-6.314;2023-03-23T11:17:58;98198.53;;;12.62;100.00
29935;BME280;19905;53.370;-6.314;2023-03-23T11:20:28;98185.94;;;12.42;100.00
29935;BME280;19905;53.370;-6.314;2023-03-23T11:22:58;98196.16;;;12.73;100.00
29935;BME280;19905;53.370;-6.314;2023-03-23T11:25:25;98196.50;;;12.64;100.00
29935;BME280;19905;53.370;-6.314;2023-03-23T11:27:54;98220.91;;;12.16;100.00
29935;BME280;19905;53.370;-6.314;2023-03-23T11:30:25;98204.75;;;11.90;100.00
29935;BME280;19905;53.370;-6.314;2023-03-23T11:32:55;98209.22;;;11.89;100.00
29935;BME280;19905;53.370;-6.314;2023-03-23T11:35:27;98221.56;;;11.67;100.00
29935;BME280;19905;53.370;-6.314;2023-03-23T11:37:58;98217.94;;;11.68;100.00
29935;BME280;19905;53.370;-6.314;2023-03-23T11:40:29;98212.50;;;11.77;100.00
29935;BME280;19905;53.370;-6.314;2023-03-23T11:42:59;98206.34;;;11.84;100.00
29935;BME280;19905;53.370;-6.314;2023-03-23T11:45:33;98207.28;;;11.98;100.00
29935;BME280;19905;53.370;-6.314;2023-03-23T11:48:13;98211.13;;;11.95;100.00
29935;BME280;19905;53.370;-6.314;2023-03-23T11:50:49;98207.59;;;11.88;100.00
29935;BME280;19905;53.370;-6.314;2023-03-23T11:53:25;98209.00;;;11.69;100.00
29935;BME280;19905;53.370;-6.314;2023-03-23T11:56:09;98203.25;;;11.66;100.00
29935;BME280;19905;53.370;-6.314;2023-03-23T11:58:37;98203.97;;;11.75;100.00
29935;BME280;19905;53.370;-6.314;2023-03-23T12:01:12;98209.78;;;11.85;100.00
29935;BME280;19905;53.370;-6.314;2023-03-23T12:03:56;98202.88;;;11.84;100.00
29935;BME280;19905;53.370;-6.314;2023-03-23T12:06:34;98209.59;;;11.86;100.00
29935;BME280;19905;53.370;-6.314;2023-03-23T12:09:15;98209.88;;;12.13;100.00
29935;BME280;19905;53.370;-6.314;2023-03-23T12:11:54;98189.09;;;12.31;100.00
29935;BME280;19905;53.370;-6.314;2023-03-23T12:14:32;98194.06;;;12.69;100.00
29935;BME280;19905;53.370;-6.314;2023-03-23T12:17:19;98178.34;;;12.89;100.00
29935;BME280;19905;53.370;-6.314;2023-03-23T12:19:56;98167.50;;;13.18;100.00
29935;BME280;19905;53.370;-6.314;2023-03-23T12:22:36;98164.19;;;13.10;100.00
29935;BME280;19905;53.370;-6.314;2023-03-23T12:25:30;98155.53;;;13.77;100.00
29935;BME280;19905;53.370;-6.314;2023-03-23T12:28:05;98145.00;;;14.37;100.00
29935;BME280;19905;53.370;-6.314;2023-03-23T12:30:38;98159.31;;;14.69;100.00
29935;BME280;19905;53.370;-6.314;2023-03-23T12:33:24;98164.81;;;14.61;100.00
29935;BME280;19905;53.370;-6.314;2023-03-23T12:36:04;98142.09;;;14.05;100.00
29935;BME280;19905;53.370;-6.314;2023-03-23T12:41:44;98160.75;;;14.52;100.00
29935;BME280;19905;53.370;-6.314;2023-03-23T12:44:17;98141.75;;;14.68;100.00
29935;BME280;19905;53.370;-6.314;2023-03-23T12:47:12;98127.00;;;14.19;100.00
29935;BME280;19905;53.370;-6.314;2023-03-23T12:49:46;98126.59;;;14.15;100.00
29935;BME280;19905;53.370;-6.314;2023-03-23T12:52:21;98128.06;;;14.51;100.00
29935;BME280;19905;53.370;-6.314;2023-03-23T12:54:53;98129.66;;;14.06;100.00
29935;BME280;19905;53.370;-6.314;2023-03-23T12:57:27;98119.22;;;14.11;100.00
29935;BME280;19905;53.370;-6.314;2023-03-23T13:00:02;98114.75;;;14.18;100.00
29935;BME280;19905;53.370;-6.314;2023-03-23T13:02:40;98117.78;;;14.88;100.00
29935;BME280;19905;53.370;-6.314;2023-03-23T13:05:13;98110.25;;;14.18;100.00
29935;BME280;19905;53.370;-6.314;2023-03-23T13:07:45;98109.03;;;14.41;100.00
29935;BME280;19905;53.370;-6.314;2023-03-23T13:10:19;98110.66;;;14.09;100.00
29935;BME280;19905;53.370;-6.314;2023-03-23T13:12:51;98097.59;;;14.27;100.00
29935;BME280;19905;53.370;-6.314;2023-03-23T13:15:27;98098.00;;;14.17;100.00